Time;durP1;ratioP1;P1;durP2;ratioP2;P2;SDS_P1;SDS_P2;PMS_P1;PMS_P2;Temp;Humidity;BMP_temperature;BMP_pressure;BME280_temperature;BME280_humidity;BME280_pressure;Samples;Min_cycle;Max_cycle;Signal;HPM_P1;HPM_P2
2021/12/14 00:01:24;;;;;;;19.27;12.70;;;9.10;94.40;;;;;;5036218;28;20453;-72
2021/12/14 00:03:55;;;;;;;20.10;11.93;;;9.00;93.50;;;;;;5035156;28;20408;-69
2021/12/14 00:06:23;;;;;;;23.73;13.43;;;9.00;93.80;;;;;;5035591;28;20820;-71
2021/12/14 00:08:58;;;;;;;19.80;12.90;;;9.00;94.60;;;;;;5035634;28;20408;-72
2021/12/14 00:14:10;;;;;;;31.00;14.63;;;9.10;94.50;;;;;;5035132;28;20944;-70
2021/12/14 00:16:36;;;;;;;22.53;13.47;;;8.90;93.20;;;;;;5035871;28;20447;-72
2021/12/14 00:19:03;;;;;;;20.80;13.37;;;9.00;94.50;;;;;;5035797;28;20983;-71
2021/12/14 00:21:30;;;;;;;27.70;17.67;;;9.00;94.10;;;;;;5035895;28;20404;-70
2021/12/14 00:24:06;;;;;;;26.80;13.20;;;9.00;94.90;;;;;;5033849;28;20422;-71
2021/12/14 00:26:50;;;;;;;21.73;12.20;;;9.00;94.70;;;;;;5035257;28;20520;-72
2021/12/14 00:29:26;;;;;;;21.73;13.20;;;9.00;94.80;;;;;;5034487;28;20956;-72
2021/12/14 00:31:54;;;;;;;24.00;13.60;;;9.00;94.40;;;;;;5035153;28;20499;-71
2021/12/14 00:34:34;;;;;;;28.17;14.70;;;9.00;93.30;;;;;;5035173;28;20396;-70
2021/12/14 00:37:01;;;;;;;22.87;14.87;;;9.00;93.30;;;;;;5035222;28;20960;-70
2021/12/14 00:39:27;;;;;;;18.40;13.60;;;9.00;93.30;;;;;;5035204;28;20410;-69
2021/12/14 00:41:52;;;;;;;26.37;15.83;;;9.00;93.30;;;;;;5035038;28;20426;-71
2021/12/14 00:44:18;;;;;;;27.67;14.60;;;9.00;93.30;;;;;;5034205;28;20595;-72
2021/12/14 00:46:44;;;;;;;23.83;15.47;;;9.00;91.50;;;;;;5035087;28;20577;-70
2021/12/14 00:49:11;;;;;;;20.43;14.47;;;9.00;91.30;;;;;;5035318;28;20173;-72
2021/12/14 00:51:38;;;;;;;19.20;13.50;;;9.00;90.70;;;;;;5033886;28;20184;-71
2021/12/14 00:54:07;;;;;;;26.60;14.37;;;9.00;88.50;;;;;;5033819;28;20418;-71
2021/12/14 00:56:33;;;;;;;21.87;14.87;;;9.00;88.50;;;;;;5034797;28;20453;-72
2021/12/14 00:59:01;;;;;;;29.73;15.97;;;9.00;87.90;;;;;;5035253;28;20416;-70
2021/12/14 01:01:33;;;;;;;27.10;14.73;;;9.00;85.60;;;;;;5034261;28;20474;-70
2021/12/14 01:04:05;;;;;;;25.90;14.67;;;9.00;83.90;;;;;;5033910;28;20467;-71
2021/12/14 01:06:35;;;;;;;26.43;14.07;;;9.00;81.40;;;;;;5035212;28;20433;-73
2021/12/14 01:09:04;;;;;;;29.27;16.17;;;8.90;77.50;;;;;;5033913;28;20420;-71
2021/12/14 01:11:41;;;;;;;19.93;13.80;;;8.90;75.10;;;;;;5034945;28;20804;-71
2021/12/14 01:14:12;;;;;;;29.00;15.60;;;8.90;74.50;;;;;;5033799;28;20454;-71
2021/12/14 01:17:06;;;;;;;21.20;14.90;;;8.90;71.50;;;;;;5034486;28;20455;-70
2021/12/14 01:19:33;;;;;;;26.40;15.90;;;8.90;69.80;;;;;;5033869;28;20416;-72
2021/12/14 01:22:31;;;;;;;23.87;14.30;;;8.90;69.70;;;;;;5033988;28;20398;-77
2021/12/14 01:25:19;;;;;;;25.17;14.73;;;8.90;69.70;;;;;;5034443;28;20415;-70
2021/12/14 01:28:04;;;;;;;29.70;16.47;;;8.80;69.60;;;;;;5034576;28;20432;-70
2021/12/14 01:30:45;;;;;;;24.60;15.53;;;8.80;65.90;;;;;;5033498;28;20422;-71
2021/12/14 01:33:13;;;;;;;28.33;15.70;;;8.70;64.90;;;;;;5032135;28;20783;-72
2021/12/14 01:35:43;;;;;;;27.07;16.33;;;8.70;64.70;;;;;;5034490;28;20423;-70
2021/12/14 01:39:09;;;;;;;23.50;16.83;;;8.60;65.90;;;;;;5033292;28;20454;-71
2021/12/14 01:41:10;;;;;;;22.50;14.87;;;8.70;67.70;;;;;;5031354;28;20444;-71
2021/12/14 01:43:57;;;;;;;31.13;16.63;;;8.70;66.10;;;;;;5033239;28;20420;-71
2021/12/14 01:46:28;;;;;;;26.10;15.10;;;8.70;65.20;;;;;;5034064;28;20963;-70
2021/12/14 01:48:55;;;;;;;23.53;16.13;;;8.70;65.50;;;;;;5034224;28;20428;-69
2021/12/14 01:51:20;;;;;;;27.40;13.97;;;8.70;62.90;;;;;;5033850;28;20427;-72
2021/12/14 01:53:50;;;;;;;25.87;15.50;;;8.60;61.30;;;;;;5031820;28;20780;-71
2021/12/14 01:56:22;;;;;;;24.47;15.67;;;8.60;59.80;;;;;;5033625;28;20203;-71
2021/12/14 01:58:53;;;;;;;21.10;13.80;;;8.50;59.30;;;;;;5033512;28;20465;-71
2021/12/14 02:01:23;;;;;;;24.53;13.47;;;8.60;59.40;;;;;;5033740;28;21038;-73
2021/12/14 02:03:55;;;;;;;22.13;13.53;;;8.50;54.60;;;;;;5033136;28;20399;-72
2021/12/14 02:06:29;;;;;;;24.33;12.53;;;8.50;55.80;;;;;;5033563;28;20441;-69
2021/12/14 02:09:03;;;;;;;20.97;14.30;;;8.50;55.30;;;;;;5033943;28;20383;-72
2021/12/14 02:11:36;;;;;;;21.83;12.60;;;8.50;54.40;;;;;;5033505;28;20423;-70
2021/12/14 02:14:04;;;;;;;24.20;13.93;;;8.50;54.40;;;;;;5032889;28;20376;-70
2021/12/14 02:16:30;;;;;;;20.43;12.77;;;8.50;54.30;;;;;;5032773;28;20430;-72
2021/12/14 02:19:00;;;;;;;18.90;12.50;;;8.60;55.80;;;;;;5032955;28;20856;-72
2021/12/14 02:21:26;;;;;;;20.10;14.20;;;8.60;53.50;;;;;;5032440;28;20509;-70
2021/12/14 02:23:54;;;;;;;20.20;11.77;;;8.60;54.20;;;;;;5032439;28;20415;-73
2021/12/14 02:26:26;;;;;;;16.10;10.50;;;8.50;45.60;;;;;;5033542;28;20932;-69
2021/12/14 02:28:53;;;;;;;18.57;11.57;;;8.60;45.60;;;;;;5033500;28;20418;-70
2021/12/14 02:31:22;;;;;;;16.43;12.93;;;8.60;40.20;;;;;;5033302;28;20415;-71
2021/12/14 02:33:50;;;;;;;25.70;13.93;;;8.50;36.60;;;;;;5031069;28;20422;-73
2021/12/14 02:36:43;;;;;;;18.13;12.37;;;8.60;37.10;;;;;;5032862;28;20947;-71
2021/12/14 02:39:24;;;;;;;17.73;11.43;;;8.60;32.10;;;;;;5031361;28;20477;-71
2021/12/14 02:41:56;;;;;;;17.87;11.37;;;8.50;29.90;;;;;;5033287;28;20438;-73
2021/12/14 02:44:22;;;;;;;27.37;13.17;;;8.60;29.30;;;;;;5032514;28;20419;-70
2021/12/14 02:46:54;;;;;;;21.37;13.53;;;8.60;26.90;;;;;;5033221;28;20418;-70
2021/12/14 02:49:23;;;;;;;22.60;11.80;;;8.50;23.10;;;;;;5032528;28;20452;-69
2021/12/14 02:51:52;;;;;;;18.13;12.80;;;8.50;23.50;;;;;;5025920;28;20418;-71
2021/12/14 02:54:41;;;;;;;18.80;13.03;;;8.50;20.70;;;;;;5032198;28;20454;-71
2021/12/14 02:57:11;;;;;;;15.83;11.77;;;8.50;19.60;;;;;;5032175;28;20984;-70
2021/12/14 02:59:40;;;;;;;15.03;10.60;;;8.50;19.50;;;;;;5032777;28;20417;-71
2021/12/14 03:02:10;;;;;;;16.20;11.70;;;8.50;19.50;;;;;;5031778;28;20419;-71
2021/12/14 03:04:44;;;;;;;26.23;14.27;;;8.50;19.50;;;;;;5031818;28;20406;-71
2021/12/14 03:07:12;;;;;;;20.30;11.97;;;8.60;18.70;;;;;;5032860;28;20436;-70
2021/12/14 03:12:31;;;;;;;20.00;12.27;;;8.50;13.30;;;;;;5031548;28;20467;-74
2021/12/14 03:15:20;;;;;;;16.17;11.47;;;8.50;13.50;;;;;;5032341;28;21001;-71
2021/12/14 03:17:53;;;;;;;22.50;13.07;;;8.40;13.50;;;;;;5028728;28;20450;-71
2021/12/14 03:20:23;;;;;;;15.17;12.17;;;8.40;13.50;;;;;;5032822;28;20452;-74
2021/12/14 03:23:03;;;;;;;19.57;10.67;;;8.40;13.90;;;;;;5031691;28;20441;-72
2021/12/14 03:25:35;;;;;;;19.63;13.00;;;8.40;13.50;;;;;;5032863;28;20426;-72
2021/12/14 03:28:01;;;;;;;19.53;12.13;;;8.40;14.10;;;;;;5032600;28;20818;-72
2021/12/14 03:30:32;;;;;;;18.50;12.80;;;8.40;13.50;;;;;;5032591;28;20517;-72
2021/12/14 03:33:03;;;;;;;13.47;10.10;;;8.40;13.40;;;;;;5034570;28;20456;-72
2021/12/14 03:35:43;;;;;;;16.93;11.13;;;8.40;10.40;;;;;;5036475;28;20446;-71
2021/12/14 03:38:31;;;;;;;17.43;11.80;;;8.40;8.50;;;;;;5036443;28;20449;-72
2021/12/14 03:41:06;;;;;;;16.67;11.60;;;8.40;9.90;;;;;;5036723;28;20407;-71
2021/12/14 03:43:32;;;;;;;18.67;12.20;;;8.40;7.30;;;;;;5034816;28;20417;-71
2021/12/14 03:45:58;;;;;;;18.20;11.20;;;8.40;5.50;;;;;;5036300;28;20449;-72
2021/12/14 03:48:26;;;;;;;22.70;12.80;;;8.40;6.60;;;;;;5036377;28;20421;-71
2021/12/14 03:50:53;;;;;;;17.87;12.33;;;8.50;4.00;;;;;;5036429;28;20420;-72
2021/12/14 03:53:20;;;;;;;15.90;10.80;;;8.40;2.20;;;;;;5034559;28;20893;-73
2021/12/14 03:55:59;;;;;;;21.00;13.37;;;8.40;2.20;;;;;;5036453;28;20430;-72
2021/12/14 03:58:33;;;;;;;15.63;10.10;;;8.40;1.40;;;;;;5035438;28;21105;-70
2021/12/14 04:01:06;;;;;;;18.00;11.87;;;8.50;1.20;;;;;;5036032;28;20487;-73
2021/12/14 04:03:32;;;;;;;24.53;13.60;;;8.40;1.00;;;;;;5015652;28;20399;-71
2021/12/14 04:05:58;;;;;;;14.17;11.30;;;8.40;1.00;;;;;;5016379;28;20419;-72
2021/12/14 04:08:25;;;;;;;16.77;12.70;;;8.40;1.10;;;;;;5035576;28;20761;-71
2021/12/14 04:10:55;;;;;;;23.80;14.00;;;8.30;1.00;;;;;;5035751;28;20259;-73
2021/12/14 04:13:25;;;;;;;16.70;11.70;;;8.30;2.10;;;;;;5034360;28;20422;-72
2021/12/14 04:15:51;;;;;;;22.30;13.77;;;8.30;4.80;;;;;;5035828;28;20438;-73
2021/12/14 04:18:17;;;;;;;20.80;14.43;;;8.30;7.30;;;;;;5035593;28;20462;-71
2021/12/14 04:20:45;;;;;;;20.13;13.60;;;8.30;7.30;;;;;;5035890;28;20390;-70
2021/12/14 04:23:20;;;;;;;18.43;13.00;;;8.30;7.30;;;;;;5034900;28;20432;-72
2021/12/14 04:25:47;;;;;;;25.90;12.10;;;8.30;10.80;;;;;;5035941;28;20473;-71
2021/12/14 04:28:16;;;;;;;24.63;13.40;;;8.30;13.40;;;;;;5035517;28;20425;-71
2021/12/14 04:30:43;;;;;;;21.37;14.27;;;8.30;13.40;;;;;;5034312;28;20996;-71
2021/12/14 04:33:12;;;;;;;18.70;12.90;;;8.30;17.20;;;;;;5034713;28;20787;-71
2021/12/14 04:35:40;;;;;;;19.57;12.17;;;8.30;17.40;;;;;;5035596;28;21155;-73
2021/12/14 04:38:19;;;;;;;14.87;11.00;;;8.30;18.60;;;;;;5035186;28;21021;-72
2021/12/14 04:51:59;;;;;;;15.37;10.10;;;8.30;16.30;;;;;;5034885;28;20488;-75
2021/12/14 04:54:41;;;;;;;19.03;12.83;;;8.30;15.90;;;;;;5035392;28;20410;-71
2021/12/14 04:57:27;;;;;;;25.07;14.67;;;8.30;16.20;;;;;;5034974;28;20948;-70
2021/12/14 04:59:55;;;;;;;19.70;11.07;;;8.30;13.40;;;;;;5034952;28;20401;-73
2021/12/14 05:02:30;;;;;;;14.70;10.30;;;8.30;15.00;;;;;;5034138;28;20435;-70
2021/12/14 05:04:57;;;;;;;19.23;12.23;;;8.30;14.30;;;;;;5034902;28;21018;-73
2021/12/14 05:09:20;;;;;;;19.30;13.20;;;8.30;13.70;;;;;;5034127;28;20807;-72
2021/12/14 05:10:19;;;;;;;17.43;11.97;;;8.30;13.40;;;;;;5034549;28;20418;-72
2021/12/14 05:12:46;;;;;;;18.33;12.20;;;8.20;14.60;;;;;;5033637;28;20981;-71
2021/12/14 05:15:14;;;;;;;20.53;13.03;;;8.20;17.00;;;;;;5034813;28;20407;-72
2021/12/14 05:17:42;;;;;;;23.30;13.83;;;8.20;19.30;;;;;;5034653;28;20462;-72
2021/12/14 05:20:09;;;;;;;17.17;12.00;;;8.10;21.40;;;;;;5034926;28;20413;-71
2021/12/14 05:22:38;;;;;;;22.43;15.03;;;8.10;28.10;;;;;;5033408;28;20426;-71
2021/12/14 05:25:08;;;;;;;18.60;13.17;;;8.10;31.30;;;;;;5033701;28;20394;-70
2021/12/14 05:27:38;;;;;;;20.70;11.43;;;8.10;36.20;;;;;;5032848;28;20973;-72
2021/12/14 05:30:22;;;;;;;19.37;13.10;;;8.10;42.60;;;;;;5034698;28;20422;-71
2021/12/14 05:32:49;;;;;;;18.30;11.63;;;8.10;52.80;;;;;;5033480;28;20422;-72
2021/12/14 05:35:18;;;;;;;27.07;11.53;;;8.10;58.90;;;;;;5034441;28;20423;-71
2021/12/14 05:37:51;;;;;;;23.13;15.10;;;8.00;60.50;;;;;;5034367;28;20466;-71
2021/12/14 05:40:42;;;;;;;23.77;13.93;;;8.10;67.50;;;;;;5034530;28;20884;-70
2021/12/14 05:43:14;;;;;;;23.83;13.17;;;8.10;71.00;;;;;;5032996;28;20425;-71
2021/12/14 05:45:46;;;;;;;16.17;13.50;;;8.10;71.40;;;;;;5033583;28;20429;-71
2021/12/14 05:48:17;;;;;;;22.17;13.77;;;8.20;74.00;;;;;;5034114;28;20426;-70
2021/12/14 05:50:47;;;;;;;17.63;10.80;;;8.20;73.40;;;;;;5034235;28;20795;-70
2021/12/14 05:53:20;;;;;;;20.53;14.30;;;8.10;73.20;;;;;;5033003;28;20461;-73
2021/12/14 05:55:47;;;;;;;19.97;12.77;;;8.20;74.40;;;;;;5034036;28;20418;-71
2021/12/14 05:58:16;;;;;;;15.33;11.13;;;8.20;73.80;;;;;;5033517;28;20458;-71
2021/12/14 06:00:45;;;;;;;16.00;11.13;;;8.10;72.50;;;;;;5034112;28;20402;-72
2021/12/14 06:03:19;;;;;;;15.47;11.17;;;8.10;72.70;;;;;;5032265;28;20462;-72
2021/12/14 06:05:45;;;;;;;18.40;11.80;;;8.10;73.90;;;;;;5033687;28;20760;-70
2021/12/14 06:08:18;;;;;;;17.87;12.10;;;8.10;72.70;;;;;;5033699;28;20780;-72
2021/12/14 06:10:44;;;;;;;17.43;12.20;;;8.20;74.00;;;;;;5033934;28;20423;-71
2021/12/14 06:13:10;;;;;;;20.87;13.03;;;8.10;73.90;;;;;;5032572;28;20854;-72
2021/12/14 06:15:36;;;;;;;24.17;11.90;;;8.10;74.00;;;;;;5033657;28;20199;-70
2021/12/14 06:18:02;;;;;;;14.93;10.83;;;8.20;75.20;;;;;;5033287;28;20235;-72
2021/12/14 06:20:28;;;;;;;17.73;11.33;;;8.20;75.10;;;;;;5033489;28;20411;-72
2021/12/14 06:22:55;;;;;;;20.37;13.43;;;8.20;76.50;;;;;;5032170;28;20419;-70
2021/12/14 06:25:25;;;;;;;16.00;10.63;;;8.20;76.70;;;;;;5033238;28;20248;-73
2021/12/14 06:27:55;;;;;;;23.43;13.03;;;8.20;75.80;;;;;;5033026;28;20934;-71
2021/12/14 06:30:26;;;;;;;20.33;13.57;;;8.20;76.20;;;;;;5033590;28;20963;-71
2021/12/14 06:32:56;;;;;;;20.47;13.20;;;8.20;74.50;;;;;;5032385;28;20421;-72
2021/12/14 06:35:46;;;;;;;15.80;12.80;;;8.20;75.70;;;;;;5032093;28;20932;-71
2021/12/14 06:38:27;;;;;;;21.10;13.37;;;8.20;76.10;;;;;;5029529;28;20545;-72
2021/12/14 06:41:21;;;;;;;20.40;12.50;;;8.10;76.00;;;;;;5032592;28;20417;-72
2021/12/14 06:43:54;;;;;;;22.70;13.43;;;8.10;78.50;;;;;;5011525;28;20958;-69
2021/12/14 06:46:25;;;;;;;18.63;13.87;;;8.20;79.50;;;;;;5013511;28;20431;-69
2021/12/14 06:48:59;;;;;;;24.63;13.13;;;8.20;81.10;;;;;;5013471;28;20939;-69
2021/12/14 06:51:31;;;;;;;17.90;11.47;;;8.20;83.30;;;;;;5025453;28;20442;-70
2021/12/14 06:54:00;;;;;;;17.33;11.50;;;8.20;83.30;;;;;;5031060;28;21022;-70
2021/12/14 06:56:29;;;;;;;24.50;12.90;;;8.30;83.80;;;;;;5032179;28;20439;-70
2021/12/14 06:59:08;;;;;;;21.67;12.40;;;8.20;83.00;;;;;;5032477;28;20416;-69
2021/12/14 07:01:40;;;;;;;22.40;12.50;;;8.20;84.60;;;;;;5013407;28;20423;-69
2021/12/14 07:04:09;;;;;;;23.80;11.50;;;8.20;85.60;;;;;;5012440;28;20450;-72
2021/12/14 07:06:40;;;;;;;16.70;12.70;;;8.20;86.10;;;;;;5031819;28;20438;-70
2021/12/14 07:09:14;;;;;;;18.20;10.77;;;8.20;86.50;;;;;;5033188;28;20414;-69
2021/12/14 07:11:44;;;;;;;16.87;11.63;;;8.20;87.90;;;;;;5032838;28;20410;-69
2021/12/14 07:14:40;;;;;;;18.00;11.17;;;8.10;88.40;;;;;;5031553;28;20426;-69
2021/12/14 07:17:18;;;;;;;22.57;11.80;;;8.20;90.20;;;;;;5002425;28;21026;-70
2021/12/14 07:19:54;;;;;;;20.13;10.53;;;8.20;90.80;;;;;;5020086;28;20470;-70
2021/12/14 07:22:23;;;;;;;15.43;9.60;;;8.20;91.30;;;;;;5031858;28;20418;-68
2021/12/14 07:25:06;;;;;;;14.83;10.40;;;8.20;92.00;;;;;;5032609;28;20415;-71
2021/12/14 07:27:43;;;;;;;15.53;9.67;;;8.30;93.00;;;;;;5032907;28;20404;-69
2021/12/14 07:30:18;;;;;;;11.47;9.43;;;8.20;93.00;;;;;;5032260;28;20752;-68
2021/12/14 07:33:05;;;;;;;10.17;8.30;;;8.30;93.00;;;;;;5031751;28;20405;-69
2021/12/14 07:35:31;;;;;;;15.30;8.90;;;8.30;93.00;;;;;;5031540;28;20457;-69
2021/12/14 07:38:20;;;;;;;11.80;8.60;;;8.30;93.10;;;;;;5032154;28;20496;-70
2021/12/14 07:40:50;;;;;;;7.03;5.73;;;8.30;93.00;;;;;;5028406;28;20462;-71
2021/12/14 07:43:20;;;;;;;11.27;7.93;;;8.30;93.40;;;;;;5031850;28;20485;-69
2021/12/14 07:45:56;;;;;;;9.63;6.90;;;8.30;93.70;;;;;;5032395;28;20469;-68
2021/12/14 07:48:39;;;;;;;9.57;7.70;;;8.30;93.90;;;;;;5032680;28;20411;-68
2021/12/14 07:51:04;;;;;;;15.70;8.10;;;8.30;94.10;;;;;;5032078;28;20457;-69
2021/12/14 07:53:32;;;;;;;9.47;6.77;;;8.30;94.10;;;;;;5031070;28;20915;-68
2021/12/14 07:55:58;;;;;;;9.23;6.70;;;8.30;94.90;;;;;;5032489;28;20184;-72
2021/12/14 07:58:41;;;;;;;9.07;6.57;;;8.30;94.90;;;;;;5032490;28;20854;-71
2021/12/14 08:01:08;;;;;;;9.43;7.13;;;8.30;95.00;;;;;;5031205;28;20175;-69
2021/12/14 08:03:35;;;;;;;7.83;6.47;;;8.30;95.40;;;;;;5031715;28;20425;-72
2021/12/14 08:06:05;;;;;;;8.50;6.57;;;8.30;95.70;;;;;;5032263;28;20418;-70
2021/12/14 08:08:41;;;;;;;8.40;6.53;;;8.30;95.60;;;;;;5032469;28;20411;-73
2021/12/14 08:11:40;;;;;;;8.13;7.33;;;8.30;96.00;;;;;;5032508;28;20410;-71
2021/12/14 08:14:20;;;;;;;9.67;7.70;;;8.30;96.50;;;;;;5030675;28;20494;-70
2021/12/14 08:17:07;;;;;;;7.93;6.30;;;8.30;96.90;;;;;;5031906;28;20449;-71
2021/12/14 08:19:42;;;;;;;7.40;5.90;;;8.30;96.90;;;;;;5036041;28;20402;-70
2021/12/14 08:22:26;;;;;;;11.87;7.40;;;8.30;96.90;;;;;;5035090;28;20402;-71
2021/12/14 08:24:52;;;;;;;7.13;6.53;;;8.30;96.90;;;;;;5035339;28;20422;-69
2021/12/14 08:27:21;;;;;;;10.10;7.00;;;8.30;96.90;;;;;;5034329;28;20480;-69
2021/12/14 08:29:54;;;;;;;6.60;5.60;;;8.30;96.90;;;;;;5034805;28;20422;-74
2021/12/14 08:32:24;;;;;;;10.70;7.47;;;8.30;96.90;;;;;;5034623;28;20446;-74
2021/12/14 08:34:52;;;;;;;10.20;7.10;;;8.40;97.00;;;;;;5035486;28;20425;-70
2021/12/14 08:37:27;;;;;;;9.47;6.53;;;8.40;97.00;;;;;;5035445;28;20460;-74
2021/12/14 08:40:02;;;;;;;9.67;7.20;;;8.40;96.90;;;;;;5035426;28;20417;-70
2021/12/14 08:42:52;;;;;;;10.10;7.67;;;8.40;96.90;;;;;;5034673;28;20402;-71
2021/12/14 08:45:26;;;;;;;11.00;7.60;;;8.40;97.40;;;;;;5035133;28;20948;-75
2021/12/14 08:47:55;;;;;;;6.17;5.63;;;8.40;97.70;;;;;;5033401;28;20432;-71
2021/12/14 08:50:21;;;;;;;7.27;6.37;;;8.50;97.70;;;;;;5035027;28;20484;-73
2021/12/14 08:52:49;;;;;;;12.67;7.97;;;8.50;97.20;;;;;;5034447;28;20406;-71
2021/12/14 08:55:16;;;;;;;9.43;7.67;;;8.50;97.60;;;;;;5033886;28;20461;-72
2021/12/14 08:57:43;;;;;;;7.00;6.23;;;8.50;97.40;;;;;;5035338;28;20452;-72
2021/12/14 09:00:18;;;;;;;6.33;5.73;;;8.50;97.30;;;;;;5034617;28;20425;-70
2021/12/14 09:02:46;;;;;;;8.27;6.30;;;8.50;97.00;;;;;;5034299;28;20487;-72
2021/12/14 09:05:17;;;;;;;6.87;6.17;;;8.50;95.50;;;;;;5034477;28;20420;-73
2021/12/14 09:07:44;;;;;;;9.60;7.77;;;8.50;96.00;;;;;;5034936;28;21023;-69
2021/12/14 09:10:14;;;;;;;6.27;5.60;;;8.50;96.10;;;;;;5034966;28;20418;-71
2021/12/14 09:12:43;;;;;;;8.90;6.17;;;8.60;96.40;;;;;;5034101;28;20403;-68
2021/12/14 09:15:27;;;;;;;6.30;5.47;;;8.60;96.20;;;;;;5034309;28;20430;-71
2021/12/14 09:17:54;;;;;;;8.27;6.27;;;8.60;95.30;;;;;;5034849;28;20511;-70
2021/12/14 09:20:30;;;;;;;8.63;7.07;;;8.70;96.00;;;;;;5034562;28;20433;-68
2021/12/14 09:23:08;;;;;;;6.13;5.50;;;8.70;96.00;;;;;;5033720;28;20459;-71
2021/12/14 09:25:34;;;;;;;8.60;5.80;;;8.70;95.80;;;;;;5019231;28;20434;-69
2021/12/14 09:28:02;;;;;;;7.83;6.47;;;8.80;95.30;;;;;;5015130;28;20418;-68
2021/12/14 09:30:32;;;;;;;14.83;6.87;;;8.80;95.20;;;;;;5032272;28;20425;-70
2021/12/14 09:32:58;;;;;;;7.70;5.97;;;8.90;95.20;;;;;;5033672;28;20401;-69
2021/12/14 09:35:26;;;;;;;7.90;6.17;;;8.90;94.70;;;;;;5034336;28;20434;-69
2021/12/14 09:37:55;;;;;;;10.60;6.43;;;8.90;93.80;;;;;;5033886;28;20514;-71
2021/12/14 09:40:33;;;;;;;6.83;5.70;;;8.90;93.90;;;;;;5033805;28;20421;-70
2021/12/14 09:42:59;;;;;;;7.20;5.83;;;9.00;93.30;;;;;;5032868;28;20405;-68
2021/12/14 09:45:47;;;;;;;9.87;6.33;;;9.00;93.30;;;;;;5034498;28;20458;-68
2021/12/14 09:48:18;;;;;;;8.53;6.33;;;9.10;93.30;;;;;;5034392;28;20501;-70
2021/12/14 09:50:46;;;;;;;5.97;5.40;;;9.10;92.50;;;;;;5034360;28;20787;-69
2021/12/14 09:53:16;;;;;;;6.03;5.37;;;9.20;92.10;;;;;;5033071;28;20433;-70
2021/12/14 09:55:44;;;;;;;5.93;5.27;;;9.20;91.40;;;;;;5033804;28;20446;-69
2021/12/14 09:58:19;;;;;;;10.40;6.43;;;9.30;88.70;;;;;;5033557;28;20453;-71
2021/12/14 10:00:56;;;;;;;8.00;6.03;;;9.20;88.60;;;;;;5033957;28;20409;-68
2021/12/14 10:03:22;;;;;;;8.63;6.47;;;9.30;84.20;;;;;;5033248;28;20985;-68
2021/12/14 10:06:01;;;;;;;10.10;5.40;;;9.30;81.60;;;;;;5033966;28;20464;-71
2021/12/14 10:08:35;;;;;;;10.77;6.00;;;9.30;77.70;;;;;;5033975;28;20501;-70
2021/12/14 10:11:11;;;;;;;9.33;6.17;;;9.30;70.00;;;;;;5033746;28;20435;-70
2021/12/14 10:13:42;;;;;;;6.17;5.57;;;9.30;65.90;;;;;;5013266;28;20521;-68
2021/12/14 10:16:09;;;;;;;7.73;4.90;;;9.20;60.00;;;;;;5014030;28;20434;-72
2021/12/14 10:18:42;;;;;;;11.03;5.50;;;9.20;54.30;;;;;;5013468;28;20548;-69
2021/12/14 10:21:16;;;;;;;6.77;5.27;;;9.20;51.30;;;;;;5013975;28;20900;-69
2021/12/14 10:23:44;;;;;;;5.93;5.17;;;9.30;46.60;;;;;;5016035;28;20556;-69
2021/12/14 10:26:10;;;;;;;9.83;5.50;;;9.30;46.40;;;;;;5033356;28;20438;-69
2021/12/14 10:28:39;;;;;;;6.93;5.90;;;9.40;45.70;;;;;;5033674;28;20399;-69
2021/12/14 10:31:10;;;;;;;5.37;4.87;;;9.40;40.70;;;;;;5033563;28;20903;-71
2021/12/14 10:33:38;;;;;;;6.63;5.00;;;9.40;36.20;;;;;;5032552;28;20755;-72
2021/12/14 10:36:22;;;;;;;7.20;5.17;;;9.40;32.10;;;;;;5033159;28;20429;-69
2021/12/14 10:44:17;;;;;;;6.67;4.53;;;9.50;20.20;;;;;;5032688;28;20852;-69
2021/12/14 10:46:47;;;;;;;5.50;4.40;;;9.50;20.20;;;;;;5032824;28;20520;-69
2021/12/14 10:49:18;;;;;;;6.40;5.80;;;9.50;16.90;;;;;;5033189;28;20533;-71
2021/12/14 10:51:49;;;;;;;8.47;4.83;;;9.50;12.00;;;;;;5032717;28;20886;-70
2021/12/14 10:54:16;;;;;;;9.50;4.30;;;9.50;8.20;;;;;;5032423;28;20414;-72
2021/12/14 10:56:47;;;;;;;7.70;4.90;;;9.40;6.10;;;;;;5032169;28;20452;-69
2021/12/14 10:59:17;;;;;;;7.60;4.23;;;9.30;1.80;;;;;;5031302;28;20414;-71
2021/12/14 11:01:49;;;;;;;6.20;4.20;;;9.30;3.90;;;;;;5033041;28;20456;-71
2021/12/14 11:04:26;;;;;;;5.23;4.40;;;9.30;4.00;;;;;;5032162;28;20414;-70
2021/12/14 11:06:53;;;;;;;4.70;4.20;;;9.30;5.40;;;;;;5033077;28;20417;-70
2021/12/14 11:09:52;;;;;;;8.93;5.27;;;9.40;4.20;;;;;;5031967;28;20414;-73
2021/12/14 11:12:27;;;;;;;5.20;3.40;;;9.50;3.00;;;;;;5028679;28;20430;-68
2021/12/14 11:14:57;;;;;;;5.13;4.43;;;9.50;1.90;;;;;;5031314;28;20513;-71
2021/12/14 11:20:19;;;;;;;4.93;4.53;;;9.50;1.00;;;;;;5032815;28;20510;-71
2021/12/14 11:23:04;;;;;;;4.40;4.00;;;9.70;1.00;;;;;;5032135;28;20441;-67
2021/12/14 11:25:32;;;;;;;4.40;4.00;;;9.70;1.00;;;;;;5013856;28;20409;-72
2021/12/14 11:28:06;;;;;;;6.83;4.30;;;9.80;1.00;;;;;;5032627;28;20402;-70
2021/12/14 11:31:00;;;;;;;5.00;3.93;;;9.80;1.00;;;;;;5031567;28;20417;-69
2021/12/14 11:33:36;;;;;;;4.47;4.07;;;9.80;1.00;;;;;;5031845;28;20418;-69
2021/12/14 11:36:38;;;;;;;3.90;3.50;;;9.80;1.00;;;;;;5031807;28;20445;-69
2021/12/14 11:39:23;;;;;;;6.50;4.10;;;9.60;1.00;;;;;;5032065;28;20977;-71
2021/12/14 11:41:55;;;;;;;3.37;3.07;;;9.40;1.00;;;;;;5032240;28;20452;-72
2021/12/14 11:44:35;;;;;;;5.93;3.57;;;9.40;1.00;;;;;;5030614;28;20504;-68
2021/12/14 11:50:00;;;;;;;3.30;3.00;;;9.40;1.00;;;;;;5032520;28;20476;-69
2021/12/14 11:52:31;;;;;;;4.73;3.40;;;9.40;1.00;;;;;;5031524;28;20425;-71
2021/12/14 11:54:57;;;;;;;3.83;2.90;;;9.40;1.00;;;;;;5034790;28;20414;-69
2021/12/14 11:57:33;;;;;;;3.90;3.33;;;9.30;1.00;;;;;;5036102;28;20477;-69
2021/12/14 12:00:07;;;;;;;6.40;3.00;;;9.20;1.00;;;;;;5036474;28;20523;-70
2021/12/14 12:02:33;;;;;;;5.17;3.37;;;9.30;1.00;;;;;;5035218;28;20782;-71
2021/12/14 12:05:11;;;;;;;3.73;2.40;;;9.40;1.00;;;;;;5036382;28;20394;-70
2021/12/14 12:10:21;;;;;;;3.90;3.60;;;9.60;1.00;;;;;;5035178;28;20482;-72
2021/12/14 12:12:47;;;;;;;5.33;3.27;;;9.70;1.00;;;;;;5035242;28;20896;-71
2021/12/14 12:15:16;;;;;;;6.03;3.63;;;9.70;1.00;;;;;;5034877;28;20172;-71
2021/12/14 12:17:46;;;;;;;4.97;4.13;;;9.80;1.00;;;;;;5035773;28;20191;-70
2021/12/14 12:20:32;;;;;;;4.60;4.20;;;9.70;1.00;;;;;;5035858;28;20413;-71
2021/12/14 12:23:09;;;;;;;4.63;4.07;;;9.70;1.00;;;;;;5034870;28;20957;-71
2021/12/14 12:25:47;;;;;;;4.57;4.17;;;9.60;1.00;;;;;;5035618;28;20954;-71
2021/12/14 12:28:21;;;;;;;4.73;4.23;;;9.60;1.00;;;;;;5035497;28;20560;-71
2021/12/14 12:30:54;;;;;;;4.40;3.83;;;9.50;1.00;;;;;;5035233;28;20977;-71
2021/12/14 12:33:30;;;;;;;4.93;4.13;;;9.60;1.00;;;;;;5034740;28;20918;-71
2021/12/14 12:36:16;;;;;;;6.97;3.97;;;9.60;1.00;;;;;;5034280;28;20437;-69
2021/12/14 12:38:47;;;;;;;4.97;3.87;;;9.50;1.00;;;;;;5035479;28;20564;-71
2021/12/14 12:41:38;;;;;;;4.23;2.90;;;9.50;1.00;;;;;;5035339;28;20420;-72
2021/12/14 12:44:21;;;;;;;3.43;3.13;;;9.40;1.00;;;;;;5034892;28;20390;-69
2021/12/14 12:46:54;;;;;;;3.83;3.53;;;9.40;1.00;;;;;;5033982;28;20441;-70
2021/12/14 12:49:27;;;;;;;4.10;3.80;;;9.40;1.00;;;;;;5035485;28;20428;-69
2021/12/14 12:51:58;;;;;;;3.77;3.47;;;9.30;1.00;;;;;;5020531;28;20418;-70
2021/12/14 12:54:29;;;;;;;5.07;3.60;;;9.20;1.00;;;;;;5015226;28;20482;-70
2021/12/14 12:57:13;;;;;;;3.47;3.17;;;9.20;1.00;;;;;;5033251;28;20439;-70
2021/12/14 12:59:49;;;;;;;4.30;3.90;;;9.10;1.00;;;;;;5034964;28;20414;-70
2021/12/14 13:02:30;;;;;;;5.30;4.40;;;9.10;1.00;;;;;;5034259;28;20425;-72
2021/12/14 13:05:05;;;;;;;8.37;4.27;;;9.20;1.00;;;;;;5037000;28;20433;-70
2021/12/14 13:07:42;;;;;;;3.40;3.10;;;9.20;1.00;;;;;;5032839;28;20441;-70
2021/12/14 13:10:16;;;;;;;4.80;3.60;;;9.10;1.00;;;;;;5025675;28;20432;-69
2021/12/14 13:12:47;;;;;;;3.10;2.80;;;9.10;1.00;;;;;;5033615;28;20422;-70
2021/12/14 13:15:48;;;;;;;3.40;2.43;;;8.90;1.00;;;;;;5035000;28;20768;-68
2021/12/14 13:18:17;;;;;;;4.40;3.00;;;8.90;1.00;;;;;;5034027;28;20450;-72
2021/12/14 13:20:46;;;;;;;2.43;2.23;;;8.80;1.00;;;;;;5034932;28;20397;-70
2021/12/14 13:23:13;;;;;;;2.33;2.13;;;8.80;1.00;;;;;;5033099;28;20423;-72
2021/12/14 13:25:43;;;;;;;4.23;2.53;;;8.80;1.00;;;;;;5034754;28;20414;-72
2021/12/14 13:28:10;;;;;;;2.43;2.27;;;8.80;1.00;;;;;;5034219;28;20422;-71
2021/12/14 13:30:35;;;;;;;2.40;2.20;;;8.80;1.00;;;;;;5034687;28;20422;-71
2021/12/14 13:33:01;;;;;;;2.87;2.60;;;8.80;1.00;;;;;;5032139;28;20463;-71
2021/12/14 13:35:31;;;;;;;2.47;2.30;;;8.70;1.00;;;;;;5034779;28;20903;-71
2021/12/14 13:38:06;;;;;;;6.03;2.60;;;8.80;1.00;;;;;;5033892;28;20889;-69
2021/12/14 13:40:42;;;;;;;2.63;2.40;;;8.80;1.00;;;;;;5038378;28;20403;-68
2021/12/14 13:43:10;;;;;;;2.50;2.30;;;8.80;1.00;;;;;;5031127;28;20434;-69
2021/12/14 13:45:40;;;;;;;3.37;3.07;;;8.80;1.00;;;;;;5015805;28;20832;-70
2021/12/14 13:48:08;;;;;;;3.17;2.53;;;8.80;1.00;;;;;;5033575;28;20428;-69